Airfield :
LOGIN :

Register | Disclaimer

   EN    FR    IT 

 










Legend :    VFR   Marginal VFR   IFR   Intensive IFR   Very Intensive IFR
Visi :
Ceiling :
>= 8 km
>= 3000ft
5 to 8 km
1000 to 3000 ft
1500m to 5 km
500 to 1000 ft
800 to 1500m
200 to 500 ft
< 800m
< 200 ft
Symbols :   Thunderstorms  Fog  Heavy snow  Heavy precipitations  Wind > 20 kt
SIGMETs :     Misc.  Thunderstorms  Icing  Turbulence  Mountain Waves  Volcanic Ashes






- Airport Elevation : 863 ft
- IATA code : ZAZ


LEZG - Zaragoza Aragon

CURRENT METAR :
  • 220900Z 10010KT 9999 BKN080 18/15 Q1014

EXPIRED METARs :
  • 220830Z 09006KT 9999 BKN080 17/15 Q1014
  • 220800Z 09007KT 9999 BKN085 17/15 Q1014
  • 220730Z 08007KT 9999 SCT080 17/14 Q1014
  • 220700Z 09005KT 9999 FEW080 17/13 Q1013

TAF AMD TAF LEZG
Valid from the 22 at 09:00 until the 23 at 06:00 UTC


220902Z 2209/2306 VRB03KT 9999 BKN070 TX21/2214Z TN12/2306Z
TEMPO 2209/2215 11010KT
PROB40
TEMPO 2216/2220 SHRA FEW050CB
BECMG 2304/2306 27015KT



MET'MAP, your aeronautical weather chart ! - Copyright ORBIFLY December 2007 - Disclaimer

ORBIFLY MET'MAP TEAM :

Programming & Development : Alexandra Zaïnal
Concept & original design : Baudouin d'Aumeries
Assistance for programming : Marc-Olivier Méhu
Technical & hardware support : Manuel Goepfert

Contact : metmap@orbifly.com




SOURCES & CREDITS :

   NOAA